Time;durP1;ratioP1;P1;durP2;ratioP2;P2;SDS_P1;SDS_P2;PMS_P1;PMS_P2;Temp;Humidity;BMP_temperature;BMP_pressure;BME280_temperature;BME280_humidity;BME280_pressure;Samples;Min_cycle;Max_cycle;Signal;HPM_P1;HPM_P2
2022/06/26 00:00:14;;;;;;;6.70;4.55;;;17.70;99.90;;;;;;5012466;28;20588;-79
2022/06/26 00:02:40;;;;;;;8.50;4.45;;;17.90;99.90;;;;;;5013451;28;20168;-80
2022/06/26 00:05:07;;;;;;;6.72;4.70;;;17.70;99.90;;;;;;5013158;28;20252;-80
2022/06/26 00:07:34;;;;;;;9.02;5.25;;;17.70;99.90;;;;;;4997969;28;20189;-80
2022/06/26 00:10:00;;;;;;;10.77;6.13;;;17.40;99.90;;;;;;5017617;28;20164;-80
2022/06/26 00:12:26;;;;;;;10.02;5.80;;;17.60;99.90;;;;;;5020864;28;20238;-80
2022/06/26 00:14:51;;;;;;;9.20;5.75;;;17.50;99.90;;;;;;5028664;28;20258;-80
2022/06/26 00:17:17;;;;;;;5.93;4.97;;;17.50;99.90;;;;;;5040908;28;20153;-80
2022/06/26 00:19:43;;;;;;;10.60;5.45;;;17.50;99.90;;;;;;5026557;28;20580;-79
2022/06/26 00:22:09;;;;;;;8.32;5.22;;;17.40;99.90;;;;;;5016531;28;20639;-79
2022/06/26 00:24:35;;;;;;;7.68;5.82;;;17.40;99.90;;;;;;5016172;28;20168;-79
2022/06/26 00:27:02;;;;;;;9.40;5.40;;;17.40;99.90;;;;;;4998443;28;20177;-80
2022/06/26 00:29:32;;;;;;;12.10;5.28;;;17.10;99.90;;;;;;5016093;28;20212;-80
2022/06/26 00:31:59;;;;;;;7.95;5.15;;;17.10;99.90;;;;;;5016324;28;20224;-80
2022/06/26 00:34:24;;;;;;;11.05;5.55;;;17.00;99.90;;;;;;5016081;28;20208;-79
2022/06/26 00:36:50;;;;;;;8.38;4.55;;;16.90;99.90;;;;;;4998427;28;20978;-79
2022/06/26 00:39:16;;;;;;;8.25;4.97;;;17.00;99.90;;;;;;4998494;28;20195;-84
2022/06/26 00:41:42;;;;;;;8.07;4.53;;;16.90;99.90;;;;;;5014584;28;20303;-80
2022/06/26 00:44:19;;;;;;;5.95;3.90;;;17.00;99.90;;;;;;4998226;28;20168;-80
2022/06/26 00:46:45;;;;;;;13.10;4.10;;;16.90;99.90;;;;;;5015984;28;20731;-79
2022/06/26 00:49:11;;;;;;;8.02;4.30;;;17.00;99.90;;;;;;5016035;28;20228;-80
2022/06/26 00:51:40;;;;;;;9.30;4.45;;;16.90;99.90;;;;;;5017567;28;20173;-80
2022/06/26 00:54:07;;;;;;;8.20;4.30;;;16.80;99.90;;;;;;4998835;28;20216;-80
2022/06/26 00:56:34;;;;;;;13.70;5.03;;;16.80;99.90;;;;;;4998962;28;20165;-79
2022/06/26 00:59:00;;;;;;;10.65;4.20;;;16.70;99.90;;;;;;5016097;28;20191;-79
2022/06/26 01:01:26;;;;;;;8.68;4.60;;;16.80;99.90;;;;;;4999457;28;20624;-79
2022/06/26 01:03:52;;;;;;;5.57;4.32;;;16.70;99.90;;;;;;5004378;28;20248;-79
2022/06/26 01:06:18;;;;;;;14.48;5.05;;;16.70;99.90;;;;;;5021847;28;20215;-80
2022/06/26 01:08:43;;;;;;;10.90;4.35;;;16.80;99.90;;;;;;5022736;28;20180;-80
2022/06/26 01:11:20;;;;;;;6.25;3.53;;;16.80;99.90;;;;;;5039956;28;20156;-80
2022/06/26 01:13:47;;;;;;;7.45;4.10;;;16.90;99.90;;;;;;5038988;28;20235;-81
2022/06/26 01:16:17;;;;;;;9.18;3.67;;;17.00;99.90;;;;;;5005801;28;20148;-80
2022/06/26 01:18:45;;;;;;;9.50;3.97;;;17.10;99.90;;;;;;5038423;28;20189;-80
2022/06/26 01:21:11;;;;;;;6.40;3.55;;;17.00;99.90;;;;;;5021393;28;20181;-80
2022/06/26 01:23:37;;;;;;;7.15;4.47;;;16.80;99.90;;;;;;4998265;28;20179;-79
2022/06/26 01:26:03;;;;;;;7.15;4.15;;;16.70;99.90;;;;;;4997207;28;20642;-80
2022/06/26 01:28:29;;;;;;;9.07;4.50;;;16.70;99.90;;;;;;5014086;28;20184;-80
2022/06/26 01:30:55;;;;;;;9.38;5.50;;;16.80;99.90;;;;;;5014565;28;20215;-81
2022/06/26 01:33:21;;;;;;;8.68;5.25;;;17.00;99.90;;;;;;5014255;28;20172;-81
2022/06/26 01:35:47;;;;;;;7.95;6.10;;;16.90;99.90;;;;;;4997426;28;20637;-81
2022/06/26 01:38:13;;;;;;;9.07;6.20;;;16.80;99.90;;;;;;5014062;28;20283;-81
2022/06/26 01:40:41;;;;;;;19.55;6.82;;;16.60;99.90;;;;;;4996779;28;20173;-80
2022/06/26 01:43:08;;;;;;;10.20;7.90;;;16.60;99.90;;;;;;4996896;28;20536;-81
2022/06/26 01:45:40;;;;;;;20.58;8.40;;;16.60;99.90;;;;;;4996695;28;20176;-79
2022/06/26 01:48:05;;;;;;;16.52;8.98;;;16.70;99.90;;;;;;4996213;28;20189;-81
2022/06/26 01:50:31;;;;;;;21.70;9.00;;;16.80;99.90;;;;;;5013802;28;20286;-79
2022/06/26 01:52:56;;;;;;;19.98;9.52;;;16.90;99.90;;;;;;4996148;28;20177;-81
2022/06/26 01:55:22;;;;;;;20.67;8.77;;;16.80;99.90;;;;;;5013603;28;20266;-81
2022/06/26 01:57:48;;;;;;;32.40;10.70;;;16.80;99.90;;;;;;5012607;28;20184;-87
2022/06/26 02:00:14;;;;;;;20.33;9.98;;;16.60;99.90;;;;;;5013359;28;20172;-80
2022/06/26 02:02:39;;;;;;;17.95;9.20;;;16.50;99.90;;;;;;5013259;28;20164;-80
2022/06/26 02:05:08;;;;;;;27.83;10.05;;;16.40;99.90;;;;;;5015923;28;20172;-79
2022/06/26 02:07:37;;;;;;;21.23;10.32;;;16.50;99.90;;;;;;5000020;28;20212;-81
2022/06/26 02:15:31;;;;;;;23.30;9.43;;;16.40;99.90;;;;;;5018819;28;20292;-81
2022/06/26 02:17:57;;;;;;;25.20;9.88;;;16.40;99.90;;;;;;5019699;28;20216;-83
2022/06/26 02:20:23;;;;;;;22.00;9.45;;;16.40;99.90;;;;;;4985805;28;20323;-82
2022/06/26 02:22:48;;;;;;;15.82;9.02;;;16.50;99.90;;;;;;5018422;28;20574;-82
2022/06/26 02:25:14;;;;;;;15.18;7.57;;;16.50;99.90;;;;;;5020464;28;20609;-82
2022/06/26 02:27:43;;;;;;;25.05;8.00;;;16.60;99.90;;;;;;5017161;28;20192;-82
2022/06/26 02:30:09;;;;;;;12.93;7.05;;;16.60;99.90;;;;;;5000531;28;20156;-84
2022/06/26 02:32:38;;;;;;;13.32;7.30;;;16.40;99.90;;;;;;5001142;28;20172;-80
2022/06/26 02:35:03;;;;;;;24.50;7.65;;;16.30;99.90;;;;;;5017607;28;20236;-81
2022/06/26 02:37:29;;;;;;;14.18;7.22;;;16.30;99.90;;;;;;5018683;28;20165;-81
2022/06/26 02:39:55;;;;;;;11.63;7.63;;;16.40;99.90;;;;;;5017880;28;20168;-80
2022/06/26 02:42:20;;;;;;;14.70;7.07;;;16.40;99.90;;;;;;5000068;28;20169;-81
2022/06/26 02:44:46;;;;;;;16.50;7.15;;;16.50;99.90;;;;;;5005167;28;20179;-80
2022/06/26 02:47:11;;;;;;;17.88;6.68;;;16.50;99.90;;;;;;5010424;28;20224;-80
2022/06/26 02:49:41;;;;;;;16.58;7.22;;;16.70;99.90;;;;;;5022002;28;20192;-80
2022/06/26 02:52:08;;;;;;;19.20;7.35;;;16.60;99.90;;;;;;5023085;28;20172;-83
2022/06/26 02:54:33;;;;;;;12.30;6.32;;;16.60;99.90;;;;;;5018133;28;20207;-81
2022/06/26 02:56:59;;;;;;;16.08;7.32;;;16.60;99.90;;;;;;4999833;28;20184;-80
2022/06/26 02:59:25;;;;;;;12.23;6.45;;;16.50;99.90;;;;;;5017322;28;20221;-80
2022/06/26 03:01:54;;;;;;;22.02;7.00;;;16.40;99.90;;;;;;5000341;28;20625;-80
2022/06/26 03:04:19;;;;;;;10.50;7.15;;;16.40;99.90;;;;;;4999945;28;20618;-81
2022/06/26 03:06:45;;;;;;;12.27;7.55;;;16.50;99.90;;;;;;5000652;28;20176;-81
2022/06/26 03:09:10;;;;;;;13.85;6.43;;;16.40;99.90;;;;;;4999356;28;20203;-82
2022/06/26 03:11:37;;;;;;;20.20;7.32;;;16.30;99.90;;;;;;5001924;28;20164;-81
2022/06/26 03:14:02;;;;;;;18.27;6.88;;;16.30;99.90;;;;;;4999336;28;20215;-81
2022/06/26 03:16:44;;;;;;;16.55;7.15;;;16.40;99.90;;;;;;5022230;28;20500;-80
2022/06/26 03:19:12;;;;;;;13.07;6.70;;;16.40;99.90;;;;;;5029802;28;20176;-80
2022/06/26 03:21:38;;;;;;;10.98;6.15;;;16.40;99.90;;;;;;5008984;28;20195;-86
2022/06/26 03:24:07;;;;;;;9.02;5.88;;;16.30;99.90;;;;;;5029634;28;20172;-81
2022/06/26 03:26:38;;;;;;;14.13;6.40;;;16.30;99.90;;;;;;5030584;28;20169;-81
2022/06/26 03:29:07;;;;;;;12.15;5.47;;;16.20;99.90;;;;;;5014169;28;20173;-81
2022/06/26 03:31:32;;;;;;;12.20;5.55;;;16.10;99.90;;;;;;5013278;28;20208;-81
2022/06/26 03:33:58;;;;;;;8.15;5.57;;;16.20;99.90;;;;;;4995124;28;20250;-80
2022/06/26 03:36:25;;;;;;;7.97;4.82;;;16.20;99.90;;;;;;5013030;28;20649;-80
2022/06/26 03:38:51;;;;;;;11.07;5.20;;;16.40;99.90;;;;;;5012306;28;20189;-80
2022/06/26 03:41:18;;;;;;;5.28;4.43;;;16.60;99.90;;;;;;5013948;28;20164;-80
2022/06/26 03:43:44;;;;;;;12.00;5.00;;;16.60;99.90;;;;;;4980165;28;20168;-82
2022/06/26 03:46:11;;;;;;;6.28;4.50;;;16.60;99.90;;;;;;5013324;28;20605;-81
2022/06/26 03:48:36;;;;;;;15.27;4.40;;;16.60;99.90;;;;;;4995786;28;20560;-81
2022/06/26 03:51:03;;;;;;;11.02;4.47;;;16.50;99.90;;;;;;5013818;28;20169;-81
2022/06/26 03:53:31;;;;;;;12.43;4.40;;;16.50;99.90;;;;;;5013535;28;20168;-81
2022/06/26 03:55:56;;;;;;;9.85;4.57;;;16.40;99.90;;;;;;5013429;28;20168;-81
2022/06/26 03:58:23;;;;;;;17.77;4.85;;;16.50;99.90;;;;;;5013508;28;20192;-81
2022/06/26 04:00:49;;;;;;;9.50;4.43;;;16.40;99.90;;;;;;4995661;28;20176;-81
2022/06/26 04:03:15;;;;;;;14.38;4.40;;;16.40;99.90;;;;;;4979290;28;20172;-80
2022/06/26 04:05:41;;;;;;;9.20;4.13;;;16.60;99.90;;;;;;5012786;28;20176;-81
2022/06/26 04:08:07;;;;;;;9.85;4.65;;;16.70;99.90;;;;;;4995469;28;20739;-80
2022/06/26 04:10:34;;;;;;;9.82;4.95;;;16.90;99.90;;;;;;4995787;28;20222;-81
2022/06/26 04:13:03;;;;;;;8.65;4.35;;;17.10;99.90;;;;;;5013387;28;20599;-80
2022/06/26 04:15:30;;;;;;;9.93;4.10;;;17.00;99.90;;;;;;5013230;28;20204;-82
2022/06/26 04:17:56;;;;;;;14.48;5.07;;;17.00;99.90;;;;;;5012841;28;20189;-79
2022/06/26 04:20:22;;;;;;;5.45;4.13;;;17.00;99.90;;;;;;4995488;28;20528;-80
2022/06/26 04:23:01;;;;;;;6.82;4.15;;;17.00;99.90;;;;;;4995866;28;20169;-79
2022/06/26 04:25:29;;;;;;;7.15;3.92;;;17.10;99.90;;;;;;5013128;28;20613;-80
2022/06/26 04:27:55;;;;;;;5.15;3.63;;;17.10;99.90;;;;;;5012736;28;20234;-80
2022/06/26 04:30:21;;;;;;;11.90;4.20;;;16.90;99.90;;;;;;5013107;28;20165;-81
2022/06/26 04:32:47;;;;;;;10.63;4.05;;;16.90;99.90;;;;;;5013399;28;20172;-80
2022/06/26 04:35:13;;;;;;;9.82;4.28;;;16.90;99.90;;;;;;4995453;28;20687;-79
2022/06/26 04:37:40;;;;;;;9.00;3.95;;;17.00;99.90;;;;;;4996255;28;20223;-80
2022/06/26 04:40:08;;;;;;;8.77;3.65;;;17.20;99.90;;;;;;5013234;28;20171;-80
2022/06/26 04:42:34;;;;;;;9.52;4.50;;;17.30;99.90;;;;;;4995787;28;20173;-80
2022/06/26 04:45:00;;;;;;;5.85;3.83;;;17.40;99.90;;;;;;4995925;28;20176;-81
2022/06/26 04:47:25;;;;;;;11.75;3.83;;;17.50;99.90;;;;;;4995282;28;20300;-80
2022/06/26 04:49:51;;;;;;;10.10;4.43;;;17.50;99.90;;;;;;5012932;28;20633;-81
2022/06/26 04:52:17;;;;;;;12.18;4.07;;;17.50;99.90;;;;;;4979380;28;20184;-80
2022/06/26 04:54:43;;;;;;;11.70;3.65;;;17.50;99.90;;;;;;5015524;28;20255;-80
2022/06/26 04:57:09;;;;;;;11.60;3.80;;;17.40;99.90;;;;;;4998285;28;20203;-81
2022/06/26 04:59:34;;;;;;;5.72;3.72;;;17.40;99.90;;;;;;5016098;28;20301;-80
2022/06/26 05:02:00;;;;;;;11.43;3.38;;;17.50;99.90;;;;;;5015605;28;20172;-80
2022/06/26 05:04:26;;;;;;;10.38;3.30;;;17.40;99.90;;;;;;5015703;28;20294;-81
2022/06/26 05:06:52;;;;;;;5.60;3.22;;;17.50;99.90;;;;;;5015470;28;20234;-80
2022/06/26 05:09:17;;;;;;;4.53;4.13;;;17.60;99.90;;;;;;5015408;28;20263;-80
2022/06/26 05:11:44;;;;;;;4.60;3.10;;;17.40;99.90;;;;;;5015668;28;20300;-80
2022/06/26 05:14:10;;;;;;;9.30;3.38;;;17.30;99.90;;;;;;5018202;28;20204;-81
2022/06/26 05:16:36;;;;;;;14.10;4.05;;;17.40;99.90;;;;;;5029207;28;20172;-81
2022/06/26 05:19:02;;;;;;;8.18;4.03;;;17.50;99.90;;;;;;5020511;28;20212;-81
2022/06/26 05:21:28;;;;;;;9.10;4.30;;;17.60;99.90;;;;;;5013191;28;20217;-82
2022/06/26 05:23:54;;;;;;;6.07;4.05;;;17.50;99.90;;;;;;5015339;28;20251;-81
2022/06/26 05:26:20;;;;;;;12.43;3.75;;;17.30;99.90;;;;;;5015351;28;20706;-84
2022/06/26 05:28:45;;;;;;;12.00;3.88;;;17.50;99.90;;;;;;4997864;28;20204;-81
2022/06/26 05:31:11;;;;;;;10.63;3.97;;;17.50;99.90;;;;;;5015394;28;20222;-81
2022/06/26 05:33:37;;;;;;;5.57;4.00;;;17.60;99.90;;;;;;5014915;28;20176;-81
2022/06/26 05:36:03;;;;;;;7.82;4.45;;;17.80;99.90;;;;;;4998496;28;20227;-86
2022/06/26 05:38:29;;;;;;;4.13;3.45;;;18.10;99.90;;;;;;4997657;28;20739;-79
2022/06/26 05:40:55;;;;;;;4.65;3.42;;;18.00;99.90;;;;;;5014883;28;20247;-79
2022/06/26 05:43:21;;;;;;;5.45;3.78;;;18.20;99.90;;;;;;5014857;28;20252;-79
2022/06/26 05:45:47;;;;;;;6.93;4.05;;;18.30;99.90;;;;;;5014862;28;20196;-76
2022/06/26 05:48:13;;;;;;;8.40;4.28;;;18.30;99.90;;;;;;5015144;28;20670;-78
2022/06/26 05:50:39;;;;;;;13.00;3.85;;;18.60;99.90;;;;;;5016110;28;20267;-80
2022/06/26 05:53:04;;;;;;;8.30;3.88;;;18.70;99.90;;;;;;4997513;28;20231;-80
2022/06/26 05:55:31;;;;;;;5.43;4.65;;;18.70;99.90;;;;;;5015257;28;20204;-80
2022/06/26 05:57:56;;;;;;;8.70;3.78;;;18.90;99.90;;;;;;4996787;28;20184;-81
2022/06/26 06:00:22;;;;;;;7.13;4.10;;;18.80;99.90;;;;;;5019237;28;20175;-80
2022/06/26 06:02:47;;;;;;;9.15;3.85;;;18.70;99.90;;;;;;5002894;28;20652;-81
2022/06/26 06:05:13;;;;;;;4.43;3.28;;;18.90;99.90;;;;;;5018814;28;20191;-80
2022/06/26 06:07:39;;;;;;;4.80;4.25;;;18.90;99.90;;;;;;5022539;28;20514;-80
2022/06/26 06:10:09;;;;;;;5.80;4.03;;;18.60;99.90;;;;;;5020812;28;20172;-79
2022/06/26 06:12:35;;;;;;;10.60;5.18;;;18.10;99.90;;;;;;5019524;28;20667;-90
2022/06/26 06:15:01;;;;;;;7.25;4.05;;;18.20;99.90;;;;;;5021072;28;20205;-79
2022/06/26 06:17:36;;;;;;;9.18;3.58;;;18.30;99.90;;;;;;5015979;28;20169;-79
2022/06/26 06:20:08;;;;;;;7.95;4.40;;;18.30;99.90;;;;;;5018227;28;20184;-79
2022/06/26 06:22:33;;;;;;;21.77;4.50;;;18.70;99.90;;;;;;5015597;28;20203;-79
2022/06/26 06:24:59;;;;;;;13.80;3.70;;;18.50;99.90;;;;;;5017194;28;20528;-79
2022/06/26 06:27:25;;;;;;;3.95;3.50;;;18.30;99.90;;;;;;4998267;28;20534;-79
2022/06/26 06:29:50;;;;;;;5.72;4.03;;;18.40;99.90;;;;;;5016318;28;20179;-79
2022/06/26 06:32:25;;;;;;;10.95;3.83;;;18.60;99.90;;;;;;4998262;28;20531;-79
2022/06/26 06:34:55;;;;;;;10.43;3.70;;;18.50;99.90;;;;;;5001327;28;20216;-80
2022/06/26 06:37:20;;;;;;;4.63;2.90;;;18.20;99.90;;;;;;5020283;28;20218;-83
2022/06/26 06:39:46;;;;;;;6.38;3.78;;;18.20;99.90;;;;;;5018813;28;20164;-78
2022/06/26 06:42:12;;;;;;;8.77;3.08;;;18.30;99.90;;;;;;5017209;28;20169;-79
2022/06/26 06:44:37;;;;;;;19.80;4.32;;;18.50;99.90;;;;;;5015782;28;20701;-79
2022/06/26 06:47:04;;;;;;;7.63;3.33;;;18.60;99.90;;;;;;4999491;28;20180;-79
2022/06/26 06:49:30;;;;;;;12.68;4.38;;;18.70;99.90;;;;;;5017896;28;20691;-80
2022/06/26 06:51:55;;;;;;;10.02;4.18;;;18.80;99.90;;;;;;5017560;28;20177;-79
2022/06/26 06:54:21;;;;;;;12.10;5.75;;;18.70;99.90;;;;;;5014768;28;20200;-79
2022/06/26 06:56:47;;;;;;;10.30;4.28;;;18.70;99.90;;;;;;5015321;28;20168;-80
2022/06/26 06:59:12;;;;;;;11.20;3.78;;;19.00;99.90;;;;;;5015439;28;20185;-79
2022/06/26 07:01:38;;;;;;;17.13;3.25;;;19.00;99.90;;;;;;5018472;28;20556;-80
2022/06/26 07:04:04;;;;;;;3.92;2.63;;;19.00;99.90;;;;;;5014132;28;20585;-79
2022/06/26 07:06:29;;;;;;;3.42;2.80;;;19.20;99.90;;;;;;5015577;28;20165;-82
2022/06/26 07:08:55;;;;;;;7.32;3.17;;;19.40;99.90;;;;;;5014440;28;20547;-82
2022/06/26 07:11:21;;;;;;;2.50;2.10;;;19.60;99.90;;;;;;5015703;28;20172;-84
2022/06/26 07:13:46;;;;;;;4.55;2.17;;;19.80;99.90;;;;;;4998156;28;20338;-82
2022/06/26 07:16:12;;;;;;;8.10;3.05;;;19.70;99.90;;;;;;4996973;28;20230;-82
2022/06/26 07:18:37;;;;;;;5.57;3.40;;;19.90;99.90;;;;;;4996277;28;20574;-83
2022/06/26 07:21:07;;;;;;;9.98;3.58;;;19.60;99.90;;;;;;4997293;28;20653;-81
2022/06/26 07:23:33;;;;;;;7.95;3.20;;;19.60;99.90;;;;;;4996006;28;20715;-85
2022/06/26 07:25:58;;;;;;;6.10;3.47;;;19.60;99.90;;;;;;4996357;28;20176;-79
2022/06/26 07:28:24;;;;;;;11.98;2.83;;;19.60;99.90;;;;;;5013565;28;20284;-79
2022/06/26 07:30:50;;;;;;;20.88;3.47;;;19.50;99.90;;;;;;5013078;28;20164;-78
2022/06/26 07:36:00;;;;;;;7.65;2.90;;;20.00;99.90;;;;;;5013131;28;20199;-80
2022/06/26 07:38:25;;;;;;;10.23;3.20;;;20.00;99.90;;;;;;5013366;28;20193;-80
2022/06/26 07:40:52;;;;;;;6.85;3.17;;;20.20;99.90;;;;;;5013690;28;20180;-82
2022/06/26 07:43:17;;;;;;;9.73;3.08;;;20.30;99.90;;;;;;4995880;28;20160;-81
2022/06/26 07:45:43;;;;;;;10.18;2.75;;;20.30;99.90;;;;;;4995747;28;20229;-81
2022/06/26 07:48:09;;;;;;;6.00;2.65;;;20.50;99.90;;;;;;5012844;28;20180;-80
2022/06/26 07:50:35;;;;;;;17.70;3.13;;;20.20;99.90;;;;;;5013247;28;20168;-80
2022/06/26 07:53:01;;;;;;;7.18;2.90;;;20.40;99.90;;;;;;5013172;28;20636;-80
2022/06/26 07:55:26;;;;;;;8.52;2.95;;;20.30;99.90;;;;;;4998968;28;20370;-81
2022/06/26 07:57:52;;;;;;;4.85;2.90;;;19.90;99.90;;;;;;5036010;28;20210;-81
2022/06/26 08:00:18;;;;;;;4.65;2.92;;;20.20;99.90;;;;;;5037047;28;20179;-80
2022/06/26 08:02:43;;;;;;;7.13;2.90;;;20.40;99.90;;;;;;5033798;28;20195;-80
2022/06/26 08:05:09;;;;;;;9.07;3.85;;;20.60;99.90;;;;;;5033591;28;20176;-80
2022/06/26 08:07:35;;;;;;;6.10;3.20;;;20.70;99.90;;;;;;5018733;28;20193;-81
2022/06/26 08:10:00;;;;;;;4.35;2.95;;;20.70;99.90;;;;;;5030366;28;20187;-83
2022/06/26 08:12:26;;;;;;;5.47;3.38;;;20.80;99.90;;;;;;5036316;28;20233;-81
2022/06/26 08:14:52;;;;;;;4.68;4.28;;;20.70;99.90;;;;;;5035567;28;20540;-81
2022/06/26 08:17:18;;;;;;;5.45;3.78;;;20.80;99.90;;;;;;5036218;28;20242;-80
2022/06/26 08:19:43;;;;;;;3.88;3.33;;;21.10;99.90;;;;;;5012470;28;20200;-86
2022/06/26 08:22:36;;;;;;;9.95;4.32;;;20.40;99.90;;;;;;5018058;28;20174;-80
2022/06/26 08:25:02;;;;;;;9.40;5.18;;;20.70;99.90;;;;;;5034230;28;20196;-80
2022/06/26 08:27:27;;;;;;;10.68;4.65;;;20.80;99.90;;;;;;5043348;28;20215;-80
2022/06/26 08:29:53;;;;;;;9.98;6.53;;;20.90;99.90;;;;;;5019310;28;20168;-82
2022/06/26 08:32:19;;;;;;;16.55;4.78;;;20.90;99.90;;;;;;5036185;28;20254;-81
2022/06/26 08:34:44;;;;;;;18.35;5.40;;;21.10;99.90;;;;;;5034774;28;20218;-81
2022/06/26 08:37:10;;;;;;;15.85;5.65;;;21.00;99.90;;;;;;5036755;28;20198;-81
2022/06/26 08:39:35;;;;;;;11.80;5.63;;;21.20;99.90;;;;;;5018879;28;20249;-81
2022/06/26 08:42:02;;;;;;;9.70;5.65;;;21.30;99.90;;;;;;5019872;28;20164;-79
2022/06/26 08:44:28;;;;;;;11.45;5.38;;;21.00;99.90;;;;;;5018849;28;20175;-78
2022/06/26 08:46:55;;;;;;;19.75;7.45;;;21.10;99.90;;;;;;5037453;28;20160;-80
2022/06/26 08:49:23;;;;;;;12.18;7.68;;;20.90;99.90;;;;;;5018952;28;20191;-81
2022/06/26 08:51:50;;;;;;;16.08;7.22;;;20.80;99.90;;;;;;5037115;28;20172;-80
2022/06/26 08:54:17;;;;;;;17.15;6.20;;;20.90;99.90;;;;;;5034220;28;20204;-80
2022/06/26 08:56:49;;;;;;;14.43;6.18;;;21.00;99.90;;;;;;5034859;28;20251;-85
2022/06/26 08:59:17;;;;;;;9.90;5.32;;;21.20;99.90;;;;;;5035487;28;20564;-81
2022/06/26 09:01:46;;;;;;;10.88;5.85;;;21.10;99.90;;;;;;5037453;28;20160;-79
2022/06/26 09:04:12;;;;;;;10.80;6.05;;;21.40;99.90;;;;;;5022230;28;20180;-79
2022/06/26 09:06:40;;;;;;;10.55;6.13;;;21.50;99.90;;;;;;5037258;28;20175;-79
2022/06/26 09:09:17;;;;;;;8.80;6.60;;;21.80;99.90;;;;;;5035343;28;20192;-79
2022/06/26 09:11:44;;;;;;;9.77;6.63;;;22.20;99.90;;;;;;5035543;28;20191;-79
2022/06/26 09:14:12;;;;;;;15.93;6.30;;;22.60;99.90;;;;;;5035154;28;20290;-81
2022/06/26 09:16:39;;;;;;;9.30;7.30;;;22.70;99.90;;;;;;5017606;28;20699;-80
2022/06/26 09:19:13;;;;;;;15.70;7.75;;;22.90;99.90;;;;;;5033671;28;20242;-81
2022/06/26 09:21:40;;;;;;;12.25;7.13;;;23.10;99.90;;;;;;5034492;28;20209;-83
2022/06/26 09:24:14;;;;;;;15.25;6.93;;;23.10;99.90;;;;;;5017944;28;20172;-83
2022/06/26 09:26:41;;;;;;;15.32;8.23;;;22.40;99.90;;;;;;5035421;28;20167;-82
2022/06/26 09:29:17;;;;;;;12.10;9.20;;;22.20;99.90;;;;;;5018199;28;20180;-82
2022/06/26 09:31:43;;;;;;;23.05;8.48;;;22.30;99.90;;;;;;5034936;28;20171;-83
2022/06/26 09:34:26;;;;;;;11.48;7.45;;;22.70;99.90;;;;;;5035072;28;20198;-83
2022/06/26 09:37:00;;;;;;;10.40;7.00;;;22.50;99.90;;;;;;5035126;28;20262;-83
2022/06/26 09:39:26;;;;;;;12.80;5.60;;;22.70;99.90;;;;;;5035272;28;20223;-83
2022/06/26 09:41:51;;;;;;;13.98;5.82;;;22.70;99.90;;;;;;5017352;28;20172;-82
2022/06/26 09:44:21;;;;;;;14.85;7.03;;;22.80;99.90;;;;;;5017802;28;20171;-82
2022/06/26 09:46:47;;;;;;;16.05;6.90;;;23.00;99.90;;;;;;5035651;28;20222;-83
2022/06/26 09:49:13;;;;;;;10.23;7.15;;;22.70;99.90;;;;;;5017563;28;20210;-83
2022/06/26 09:51:39;;;;;;;8.40;6.65;;;22.70;99.90;;;;;;5016870;28;20179;-83
2022/06/26 09:54:05;;;;;;;13.05;6.38;;;22.70;99.90;;;;;;5017095;28;20282;-83
2022/06/26 09:56:32;;;;;;;9.10;6.10;;;22.90;99.90;;;;;;5034940;28;20191;-84
2022/06/26 09:58:59;;;;;;;6.50;5.18;;;22.80;99.90;;;;;;5034518;28;20215;-83
2022/06/26 10:07:00;;;;;;;3.33;3.03;;;22.60;99.90;;;;;;5035231;28;20267;-82
2022/06/26 10:09:27;;;;;;;4.78;3.05;;;22.70;99.90;;;;;;5016973;28;20192;-83
2022/06/26 10:11:55;;;;;;;8.32;3.25;;;23.00;99.90;;;;;;5016679;28;20168;-87
2022/06/26 10:14:33;;;;;;;11.65;3.42;;;22.90;99.90;;;;;;5016770;28;20195;-84
2022/06/26 10:17:21;;;;;;;9.15;2.38;;;23.30;99.90;;;;;;5034638;28;20172;-83
2022/06/26 10:19:56;;;;;;;2.15;1.60;;;23.50;99.90;;;;;;5017592;28;20184;-83
2022/06/26 10:22:22;;;;;;;3.60;2.35;;;23.90;99.90;;;;;;5035334;28;20167;-81
2022/06/26 10:24:59;;;;;;;14.43;2.20;;;23.40;99.90;;;;;;5044275;28;20176;-83
2022/06/26 10:27:30;;;;;;;14.05;1.90;;;23.20;99.90;;;;;;5039720;28;20171;-84
2022/06/26 10:30:11;;;;;;;8.18;2.00;;;23.40;99.90;;;;;;5051076;28;20182;-84
2022/06/26 10:32:37;;;;;;;10.23;2.63;;;23.40;99.90;;;;;;5021988;28;20214;-86
2022/06/26 10:35:04;;;;;;;10.18;1.92;;;23.90;99.90;;;;;;5035222;28;20230;-91
2022/06/26 10:37:41;;;;;;;2.97;2.10;;;24.10;99.90;;;;;;5001570;28;20195;-84
2022/06/26 10:43:11;;;;;;;4.80;1.80;;;24.10;99.90;;;;;;5034549;28;20667;-87
2022/06/26 10:45:38;;;;;;;3.28;2.15;;;23.90;99.90;;;;;;5034672;28;20171;-85
2022/06/26 10:48:25;;;;;;;10.55;3.00;;;24.20;99.90;;;;;;5016868;28;20253;-87
2022/06/26 10:51:01;;;;;;;4.72;2.20;;;24.10;99.90;;;;;;5016280;28;20318;-84
2022/06/26 10:53:30;;;;;;;4.90;2.00;;;24.30;99.90;;;;;;5016791;28;20175;-84
2022/06/26 10:56:00;;;;;;;11.23;1.90;;;24.50;99.90;;;;;;5016846;28;20191;-84
2022/06/26 10:58:36;;;;;;;2.70;1.80;;;24.30;99.90;;;;;;5016176;28;20192;-83
2022/06/26 11:01:05;;;;;;;4.30;1.52;;;24.70;99.90;;;;;;5016226;28;20262;-84
2022/06/26 11:03:32;;;;;;;2.22;1.30;;;24.80;99.90;;;;;;5016154;28;20167;-85
2022/06/26 11:05:59;;;;;;;9.25;1.58;;;24.80;99.90;;;;;;5033957;28;20251;-85
2022/06/26 11:08:32;;;;;;;3.55;1.60;;;24.70;99.90;;;;;;5016136;28;20236;-83
2022/06/26 11:11:14;;;;;;;5.25;1.60;;;24.40;99.90;;;;;;5016944;28;20175;-85
2022/06/26 11:13:52;;;;;;;2.38;1.20;;;23.80;99.90;;;;;;5017218;28;20218;-85
2022/06/26 11:16:28;;;;;;;3.20;2.00;;;24.20;99.90;;;;;;5016949;28;20222;-84
2022/06/26 11:18:54;;;;;;;7.90;1.58;;;24.30;99.90;;;;;;5016426;28;20194;-85
2022/06/26 11:21:19;;;;;;;7.45;2.13;;;24.00;99.90;;;;;;5021611;28;20227;-85
2022/06/26 11:23:47;;;;;;;4.15;2.20;;;23.50;99.90;;;;;;5038988;28;20172;-83
2022/06/26 11:26:19;;;;;;;5.07;1.40;;;23.90;99.90;;;;;;5038770;28;20168;-85
2022/06/26 11:29:08;;;;;;;3.45;1.35;;;24.20;99.90;;;;;;5020787;28;20191;-85
2022/06/26 11:31:35;;;;;;;7.13;1.55;;;24.10;99.90;;;;;;5019583;28;20242;-84
2022/06/26 11:34:15;;;;;;;8.40;1.45;;;24.30;99.90;;;;;;5040829;28;20195;-84
2022/06/26 11:36:52;;;;;;;10.48;1.42;;;23.80;99.90;;;;;;5041248;28;20178;-83
2022/06/26 11:39:18;;;;;;;3.22;1.20;;;23.60;99.90;;;;;;5021534;28;20191;-83
2022/06/26 11:41:45;;;;;;;5.20;1.35;;;23.00;99.90;;;;;;5041977;28;20160;-85
2022/06/26 11:44:11;;;;;;;15.32;1.95;;;22.70;99.90;;;;;;5037295;28;20164;-81
2022/06/26 11:46:37;;;;;;;3.70;1.13;;;22.90;99.90;;;;;;5036612;28;20180;-81
2022/06/26 11:49:03;;;;;;;16.67;2.53;;;22.60;99.90;;;;;;5033626;28;20245;-81
2022/06/26 11:51:32;;;;;;;9.55;1.42;;;22.90;99.90;;;;;;5016289;28;20210;-82
2022/06/26 11:54:11;;;;;;;9.23;2.53;;;22.80;99.90;;;;;;5035092;28;20191;-81
2022/06/26 11:56:37;;;;;;;7.57;1.17;;;23.50;99.90;;;;;;5019993;28;20286;-80
2022/06/26 11:59:03;;;;;;;3.03;1.60;;;23.50;99.90;;;;;;5017135;28;20589;-84
2022/06/26 12:01:36;;;;;;;3.88;1.13;;;23.60;99.90;;;;;;5034917;28;20647;-85
2022/06/26 12:04:03;;;;;;;3.00;1.83;;;23.80;99.90;;;;;;5040680;28;20199;-81
2022/06/26 12:06:36;;;;;;;5.30;1.48;;;24.10;99.90;;;;;;5023423;28;20187;-81
2022/06/26 12:09:32;;;;;;;2.22;1.23;;;24.30;99.90;;;;;;5038249;28;20604;-81
2022/06/26 12:11:57;;;;;;;2.92;1.38;;;24.30;99.90;;;;;;5038053;28;20501;-81
2022/06/26 12:14:26;;;;;;;3.42;1.75;;;24.60;99.90;;;;;;5037946;28;20211;-86
2022/06/26 12:16:57;;;;;;;14.23;1.48;;;24.60;99.90;;;;;;5021234;28;20538;-81
2022/06/26 12:19:23;;;;;;;4.40;1.25;;;24.40;99.90;;;;;;5020833;28;20223;-80
2022/06/26 12:21:53;;;;;;;3.33;1.42;;;24.10;99.90;;;;;;5038282;28;20187;-81
2022/06/26 12:24:19;;;;;;;5.88;1.42;;;24.40;99.90;;;;;;5019555;28;20218;-81
2022/06/26 12:26:47;;;;;;;1.48;1.38;;;24.30;99.90;;;;;;5042003;28;20225;-79
2022/06/26 12:29:15;;;;;;;5.38;1.38;;;24.20;99.90;;;;;;5038008;28;20233;-78
2022/06/26 12:31:42;;;;;;;2.90;1.30;;;24.20;99.90;;;;;;5021224;28;20191;-80
2022/06/26 12:34:08;;;;;;;4.03;1.38;;;24.20;99.90;;;;;;5037636;28;20270;-79
2022/06/26 12:36:35;;;;;;;3.05;1.00;;;24.20;99.90;;;;;;5037446;28;20148;-79
2022/06/26 12:39:02;;;;;;;5.38;1.30;;;24.40;99.90;;;;;;5040389;28;20584;-78
2022/06/26 12:41:28;;;;;;;4.68;1.35;;;24.30;99.90;;;;;;5041677;28;20244;-78
2022/06/26 12:43:56;;;;;;;4.68;1.13;;;24.30;99.90;;;;;;5040259;28;20168;-78
2022/06/26 12:46:22;;;;;;;4.13;1.42;;;24.50;99.90;;;;;;5037793;28;20172;-79
2022/06/26 12:48:48;;;;;;;4.32;1.30;;;24.00;99.90;;;;;;5037737;28;20180;-79
2022/06/26 12:51:14;;;;;;;8.27;1.85;;;23.90;99.90;;;;;;5037049;28;20217;-79
2022/06/26 12:53:42;;;;;;;3.72;1.10;;;23.90;99.90;;;;;;5018142;28;20238;-79
2022/06/26 12:56:10;;;;;;;4.75;1.20;;;23.60;99.90;;;;;;5038040;28;20168;-79
2022/06/26 12:58:35;;;;;;;1.50;1.30;;;23.70;99.90;;;;;;5047626;28;20234;-79
2022/06/26 13:01:01;;;;;;;4.28;1.30;;;24.20;99.90;;;;;;5057752;28;20159;-78